Keith, Kentucky
Current Conditions -  °F | °C
As of 9:35 AM on Saturday 22 Nov 2014 (Local Time) from KI35 Reporting Station
Clear Clear  
Wind Chill: 37°   Ceiling: Unl
Heat Index: 41°   Visibility: 10mi
Dew Point: 23°   Wind: 6mph
Humidity: 49%   Direction: 90°E
Pressure: 30.4"   Gusts: NA
Location:  36.8769°N, 83.3223°W
Report Text: KI35 221435Z AUTO 09005KT 10SM CLR 05/M05 A3040 RMK AO1
Loading
Personal Weather Stations






























Interactive Weather Map New forecast layout! Learn more

10-Day Weather Forecast

Advertisements
Track Severe Weather on mobile